Time;durP1;ratioP1;P1;durP2;ratioP2;P2;SDS_P1;SDS_P2;PMS_P1;PMS_P2;Temp;Humidity;BMP_temperature;BMP_pressure;BME280_temperature;BME280_humidity;BME280_pressure;Samples;Min_cycle;Max_cycle;Signal;HPM_P1;HPM_P2
2021/08/21 00:02:22;;;;;;;7.30;5.07;;;;;;;15.82;75.43;100570.09;5032538;28;20053;-60
2021/08/21 00:04:51;;;;;;;6.00;4.95;;;;;;;15.84;75.95;100573.38;5035177;28;20053;-60
2021/08/21 00:07:18;;;;;;;6.85;5.20;;;;;;;15.83;75.50;100569.75;5035562;28;20068;-58
2021/08/21 00:09:47;;;;;;;6.28;4.97;;;;;;;15.82;75.63;100570.91;5035826;28;20060;-59
2021/08/21 00:12:14;;;;;;;6.03;5.13;;;;;;;15.82;75.43;100562.50;5035652;28;20462;-60
2021/08/21 00:14:42;;;;;;;8.15;5.40;;;;;;;15.83;75.22;100571.72;5035378;28;20513;-60
2021/08/21 00:17:11;;;;;;;6.60;4.90;;;;;;;15.85;74.93;100572.19;5035228;28;20491;-60
2021/08/21 00:19:38;;;;;;;6.28;5.05;;;;;;;15.83;74.84;100568.91;5035177;28;20561;-60
2021/08/21 00:22:06;;;;;;;6.15;5.28;;;;;;;15.79;75.05;100568.81;5035382;28;20053;-59
2021/08/21 00:24:33;;;;;;;6.95;5.25;;;;;;;15.80;75.00;100569.63;5034964;28;20057;-60
2021/08/21 00:27:00;;;;;;;7.40;5.40;;;;;;;15.73;75.45;100564.59;5035240;28;20050;-60
2021/08/21 00:29:28;;;;;;;6.40;5.75;;;;;;;15.71;75.44;100566.88;5035471;28;20056;-59
2021/08/21 00:31:56;;;;;;;7.95;5.95;;;;;;;15.70;75.38;100558.81;5035126;28;20387;-60
2021/08/21 00:34:24;;;;;;;6.50;5.80;;;;;;;15.68;75.43;100564.75;5035442;28;20061;-60
2021/08/21 00:36:52;;;;;;;8.67;6.17;;;;;;;15.63;75.54;100570.59;5035357;28;20379;-60
2021/08/21 00:39:19;;;;;;;6.53;5.82;;;;;;;15.58;75.76;100563.22;5035116;28;20494;-60
2021/08/21 00:41:46;;;;;;;9.93;6.50;;;;;;;15.56;76.06;100565.56;5034559;28;20128;-60
2021/08/21 00:44:14;;;;;;;9.32;6.57;;;;;;;15.56;75.92;100564.72;5035010;28;20403;-60
2021/08/21 00:47:01;;;;;;;9.13;6.85;;;;;;;15.59;75.75;100564.03;5034948;28;20061;-60
2021/08/21 00:49:30;;;;;;;8.20;6.45;;;;;;;15.57;75.78;100566.38;5035245;28;20498;-60
2021/08/21 00:51:59;;;;;;;8.18;6.68;;;;;;;15.52;75.74;100561.81;5035163;28;20061;-60
2021/08/21 00:54:27;;;;;;;9.57;7.15;;;;;;;15.48;75.94;100560.03;5025402;28;20057;-60
2021/08/21 00:56:54;;;;;;;6.90;6.03;;;;;;;15.45;76.19;100563.53;5014811;28;20057;-60
2021/08/21 00:59:22;;;;;;;9.02;7.10;;;;;;;15.43;76.22;100566.66;5015024;28;20386;-60
2021/08/21 01:01:49;;;;;;;9.20;6.80;;;;;;;15.40;76.35;100558.94;5014443;28;20065;-61
2021/08/21 01:04:18;;;;;;;8.40;7.50;;;;;;;15.37;76.42;100568.88;5015233;28;20406;-61
2021/08/21 01:06:47;;;;;;;8.00;7.07;;;;;;;15.40;76.15;100571.00;5014892;28;20061;-61
2021/08/21 01:09:14;;;;;;;9.85;7.10;;;;;;;15.42;75.83;100570.66;5014950;28;20053;-61
2021/08/21 01:11:41;;;;;;;10.32;6.95;;;;;;;15.40;75.71;100568.19;5033434;28;20061;-61
2021/08/21 01:14:09;;;;;;;9.48;6.82;;;;;;;15.37;75.91;100568.03;5033522;28;20049;-61
2021/08/21 01:16:38;;;;;;;10.18;7.70;;;;;;;15.34;76.07;100568.75;5034555;28;20068;-61
2021/08/21 01:19:07;;;;;;;10.35;7.05;;;;;;;15.35;76.10;100562.78;5034787;28;20419;-61
2021/08/21 01:21:34;;;;;;;9.23;7.40;;;;;;;15.36;76.07;100572.84;5034019;28;20052;-61
2021/08/21 01:24:04;;;;;;;11.48;8.20;;;;;;;15.34;76.17;100574.34;5033884;28;20484;-61
2021/08/21 01:26:34;;;;;;;11.32;7.30;;;;;;;15.28;76.33;100565.31;5034263;28;20076;-61
2021/08/21 01:29:06;;;;;;;10.30;6.82;;;;;;;15.29;75.83;100563.34;5034133;28;20053;-61
2021/08/21 01:31:33;;;;;;;8.90;6.45;;;;;;;15.29;75.60;100566.97;5033684;28;20076;-61
2021/08/21 01:34:00;;;;;;;7.50;6.45;;;;;;;15.28;75.66;100562.50;5034157;28;20045;-61
2021/08/21 01:36:38;;;;;;;8.30;6.18;;;;;;;15.25;75.79;100571.63;5033976;28;20056;-60
2021/08/21 01:39:06;;;;;;;7.95;6.57;;;;;;;15.18;76.24;100566.59;5033797;28;20497;-61
2021/08/21 01:41:33;;;;;;;7.50;6.22;;;;;;;15.19;75.88;100562.59;5033446;28;20054;-61
2021/08/21 01:44:00;;;;;;;8.73;6.28;;;;;;;15.21;75.61;100565.88;5033570;28;20064;-60
2021/08/21 01:46:29;;;;;;;12.73;7.20;;;;;;;15.19;75.99;100565.41;5033640;28;20411;-61
2021/08/21 01:48:57;;;;;;;6.20;5.55;;;;;;;15.17;75.96;100569.72;5033818;28;20045;-61
2021/08/21 01:51:24;;;;;;;9.13;6.65;;;;;;;15.16;76.00;100568.06;5033491;28;20057;-61
2021/08/21 01:53:55;;;;;;;8.50;6.80;;;;;;;15.17;75.93;100562.13;5033555;28;20053;-61
2021/08/21 01:56:23;;;;;;;10.75;7.90;;;;;;;15.16;75.93;100563.28;5033688;28;20415;-61
2021/08/21 01:58:50;;;;;;;8.98;7.30;;;;;;;15.12;76.08;100561.50;5033882;28;20068;-61
2021/08/21 02:01:18;;;;;;;10.98;8.20;;;;;;;15.06;76.16;100558.09;5032952;28;20057;-61
2021/08/21 02:03:47;;;;;;;10.18;7.70;;;;;;;15.02;76.22;100565.56;5033478;28;20060;-61
2021/08/21 02:06:14;;;;;;;11.75;8.20;;;;;;;15.01;76.52;100561.09;5033159;28;20065;-61
2021/08/21 02:08:42;;;;;;;10.68;7.63;;;;;;;15.00;76.38;100565.88;5033292;28;20490;-61
2021/08/21 02:11:10;;;;;;;9.18;7.10;;;;;;;14.99;76.44;100557.81;5033284;28;20057;-61
2021/08/21 02:13:37;;;;;;;10.00;6.60;;;;;;;15.02;76.21;100552.34;5033566;28;20064;-61
2021/08/21 02:16:05;;;;;;;8.60;7.15;;;;;;;15.02;76.17;100563.56;5033354;28;20418;-61
2021/08/21 02:18:32;;;;;;;8.93;6.80;;;;;;;15.00;75.96;100565.06;5033364;28;20403;-61
2021/08/21 02:21:01;;;;;;;7.60;6.78;;;;;;;14.98;76.30;100562.59;5033311;28;20506;-61
2021/08/21 02:23:28;;;;;;;10.40;7.10;;;;;;;14.94;76.26;100564.44;5032591;28;20064;-61
2021/08/21 02:25:57;;;;;;;9.73;7.47;;;;;;;14.97;75.95;100563.78;5032787;28;20075;-61
2021/08/21 02:28:24;;;;;;;10.65;7.45;;;;;;;14.98;76.23;100558.97;5033170;28;20068;-61
2021/08/21 02:30:52;;;;;;;10.13;7.72;;;;;;;14.98;76.46;100559.81;5032808;28;20491;-61
2021/08/21 02:33:20;;;;;;;10.43;7.93;;;;;;;14.97;76.28;100560.13;5032753;28;20467;-61
2021/08/21 02:35:47;;;;;;;9.50;7.50;;;;;;;14.97;76.01;100566.59;5033186;28;20053;-61
2021/08/21 02:38:16;;;;;;;9.48;7.88;;;;;;;14.97;76.12;100565.75;5032845;28;20053;-60
2021/08/21 02:40:43;;;;;;;9.93;7.20;;;;;;;14.97;76.36;100562.94;5032823;28;20458;-61
2021/08/21 02:43:12;;;;;;;10.32;7.60;;;;;;;14.92;76.18;100561.16;5033038;28;20076;-61
2021/08/21 02:45:39;;;;;;;8.43;7.18;;;;;;;14.88;76.25;100557.41;5032609;28;20063;-61
2021/08/21 02:48:07;;;;;;;8.23;6.90;;;;;;;14.82;76.18;100565.22;5032775;28;20072;-61
2021/08/21 02:50:35;;;;;;;10.77;7.28;;;;;;;14.81;76.12;100551.53;5032954;28;20054;-61
2021/08/21 02:53:02;;;;;;;9.95;7.45;;;;;;;14.79;76.39;100553.84;5032917;28;20458;-61
2021/08/21 02:55:31;;;;;;;10.63;7.75;;;;;;;14.79;76.45;100553.84;5032059;28;20057;-61
2021/08/21 02:57:59;;;;;;;10.85;7.07;;;;;;;14.74;76.47;100551.22;5033148;28;20065;-61
2021/08/21 03:00:26;;;;;;;8.20;7.22;;;;;;;14.72;76.27;100551.59;5032158;28;20103;-60
2021/08/21 03:02:53;;;;;;;9.57;7.45;;;;;;;14.73;76.24;100549.59;5033120;28;20049;-60
2021/08/21 03:05:21;;;;;;;10.80;7.65;;;;;;;14.68;76.75;100552.59;5032463;28;20057;-60
2021/08/21 03:07:48;;;;;;;9.13;7.85;;;;;;;14.65;76.74;100551.28;5032762;28;20053;-60
2021/08/21 03:10:15;;;;;;;11.93;7.70;;;;;;;14.63;76.66;100552.81;5032309;28;20056;-60
2021/08/21 03:12:45;;;;;;;11.77;8.95;;;;;;;14.60;76.96;100557.13;5032472;28;20054;-60
2021/08/21 03:15:12;;;;;;;9.98;7.82;;;;;;;14.60;76.76;100554.31;5032177;28;20053;-60
2021/08/21 03:17:40;;;;;;;9.60;7.35;;;;;;;14.62;76.34;100560.41;5032291;28;20057;-60
2021/08/21 03:20:08;;;;;;;8.48;6.70;;;;;;;14.61;76.52;100561.53;5032608;28;20049;-60
2021/08/21 03:22:35;;;;;;;8.05;6.53;;;;;;;14.56;76.45;100550.53;5032169;28;20422;-61
2021/08/21 03:25:03;;;;;;;10.02;6.55;;;;;;;14.56;75.83;100556.16;5031906;28;20060;-61
2021/08/21 03:27:31;;;;;;;8.77;7.38;;;;;;;14.52;76.23;100560.75;5032374;28;20053;-59
2021/08/21 03:30:00;;;;;;;9.45;6.65;;;;;;;14.53;76.09;100568.84;5032420;28;20112;-61
2021/08/21 03:32:28;;;;;;;9.27;6.97;;;;;;;14.53;76.30;100563.22;5032324;28;20053;-61
2021/08/21 03:34:56;;;;;;;10.50;6.97;;;;;;;14.49;76.50;100564.22;5032117;28;20053;-61
2021/08/21 03:37:23;;;;;;;11.55;7.40;;;;;;;14.48;76.60;100563.41;5033249;28;20057;-61
2021/08/21 03:39:51;;;;;;;10.15;6.70;;;;;;;14.50;76.18;100563.06;5035569;28;20179;-61
2021/08/21 03:42:18;;;;;;;9.23;6.88;;;;;;;14.43;76.35;100558.00;5036406;28;20420;-59
2021/08/21 03:44:46;;;;;;;11.10;6.72;;;;;;;14.43;76.21;100563.63;5034503;28;20521;-59
2021/08/21 03:47:14;;;;;;;8.98;6.75;;;;;;;14.44;76.34;100564.44;5025308;28;20069;-59
2021/08/21 03:49:41;;;;;;;10.75;7.43;;;;;;;14.44;76.28;100558.81;5032028;28;20049;-59
2021/08/21 03:52:09;;;;;;;9.93;7.03;;;;;;;14.38;76.12;100561.84;5035508;28;20505;-59
2021/08/21 03:54:36;;;;;;;10.95;7.93;;;;;;;14.29;75.71;100557.44;5035822;28;20049;-60
2021/08/21 03:57:04;;;;;;;10.95;8.10;;;;;;;14.23;76.07;100559.59;5035743;28;20056;-59
2021/08/21 03:59:31;;;;;;;10.23;7.68;;;;;;;14.26;76.52;100566.50;5035824;28;20060;-59
2021/08/21 04:01:59;;;;;;;11.05;7.70;;;;;;;14.26;76.48;100561.72;5035480;28;20410;-60
2021/08/21 04:04:28;;;;;;;10.05;7.60;;;;;;;14.26;75.92;100564.53;5035468;28;20053;-60
2021/08/21 04:06:55;;;;;;;9.55;7.40;;;;;;;14.23;76.35;100558.78;5035419;28;20414;-59
2021/08/21 04:09:22;;;;;;;11.70;7.93;;;;;;;14.24;76.13;100552.84;5035137;28;20068;-60
2021/08/21 04:11:50;;;;;;;9.30;7.43;;;;;;;14.23;76.24;100561.56;5035695;28;20053;-58
2021/08/21 04:14:17;;;;;;;10.18;7.97;;;;;;;14.20;76.36;100565.88;5035688;28;20049;-59
2021/08/21 04:16:44;;;;;;;10.80;8.93;;;;;;;14.21;76.06;100565.53;5035546;28;20050;-58
2021/08/21 04:19:12;;;;;;;9.93;7.68;;;;;;;14.25;76.11;100559.25;5035483;28;20501;-60
2021/08/21 04:21:41;;;;;;;10.18;7.53;;;;;;;14.21;76.32;100567.50;5035086;28;20057;-59
2021/08/21 04:24:08;;;;;;;10.33;7.20;;;;;;;14.20;76.13;100558.28;5035199;28;20509;-59
2021/08/21 04:26:36;;;;;;;7.78;6.15;;;;;;;14.24;76.03;100563.19;5035320;28;20058;-60
2021/08/21 04:29:03;;;;;;;9.65;6.30;;;;;;;14.25;76.13;100568.47;5035983;28;20394;-58
2021/08/21 04:31:31;;;;;;;9.30;6.18;;;;;;;14.26;75.97;100564.53;5035966;28;20057;-59
2021/08/21 04:33:58;;;;;;;9.57;6.60;;;;;;;14.20;76.39;100563.06;5035399;28;20060;-61
2021/08/21 04:36:25;;;;;;;8.00;6.35;;;;;;;14.23;75.74;100564.38;5035313;28;20073;-61
2021/08/21 04:38:55;;;;;;;9.02;6.60;;;;;;;14.29;75.69;100566.66;5035290;28;20060;-59
2021/08/21 04:41:22;;;;;;;;;;;;;;;14.28;75.67;100572.56;5035617;28;20065;-59
2021/08/21 04:43:49;;;;;;;7.85;5.60;;;;;;;14.32;75.79;100562.34;5035272;28;19921;-59
2021/08/21 04:46:17;;;;;;;6.82;5.20;;;;;;;14.38;75.94;100566.59;5035211;28;20068;-61
2021/08/21 04:48:44;;;;;;;8.38;5.35;;;;;;;14.38;75.58;100572.19;5034788;28;20045;-59
2021/08/21 04:51:11;;;;;;;9.35;5.60;;;;;;;14.39;75.57;100568.25;5035425;28;20428;-60
2021/08/21 04:53:39;;;;;;;8.50;5.55;;;;;;;14.47;75.19;100570.19;5034269;28;20406;-58
2021/08/21 04:56:08;;;;;;;8.52;5.13;;;;;;;14.54;74.98;100576.06;5035207;28;20050;-60
2021/08/21 04:58:36;;;;;;;6.07;4.95;;;;;;;14.58;74.90;100574.25;5035214;28;20060;-59
2021/08/21 05:01:03;;;;;;;10.50;5.50;;;;;;;14.65;75.11;100578.53;5034466;28;20406;-60
2021/08/21 05:03:31;;;;;;;8.43;5.55;;;;;;;14.71;74.97;100585.56;5035303;28;20057;-60
2021/08/21 05:05:58;;;;;;;7.45;5.82;;;;;;;14.82;74.74;100586.81;5034851;28;20060;-59
2021/08/21 05:08:26;;;;;;;7.20;5.30;;;;;;;14.90;74.12;100588.72;5034844;28;20056;-60
2021/08/21 05:10:53;;;;;;;7.28;5.47;;;;;;;14.97;73.61;100589.03;5034585;28;20056;-60
2021/08/21 05:13:23;;;;;;;7.30;5.78;;;;;;;15.01;73.89;100587.19;5035020;28;20064;-59
2021/08/21 05:15:50;;;;;;;8.52;5.38;;;;;;;15.17;73.66;100590.16;5034754;28;20053;-60
2021/08/21 05:18:24;;;;;;;7.75;5.07;;;;;;;15.27;73.43;100585.31;5035161;28;20053;-60
2021/08/21 05:20:53;;;;;;;8.85;4.75;;;;;;;15.43;73.70;100578.72;5034649;28;20395;-59
2021/08/21 05:23:20;;;;;;;6.23;4.83;;;;;;;15.60;73.34;100585.31;5033738;28;20402;-60
2021/08/21 05:25:49;;;;;;;6.00;5.03;;;;;;;15.76;72.80;100580.72;5033973;28;20064;-60
2021/08/21 05:28:18;;;;;;;7.70;4.75;;;;;;;15.83;72.78;100581.00;5033989;28;20072;-59
2021/08/21 05:30:47;;;;;;;8.55;5.65;;;;;;;15.97;72.48;100579.84;5034277;28;20046;-60
2021/08/21 05:33:16;;;;;;;7.40;5.57;;;;;;;16.12;72.10;100581.16;5034234;28;20366;-60
2021/08/21 05:35:43;;;;;;;8.77;5.68;;;;;;;16.23;71.73;100574.72;5033990;28;20058;-60
2021/08/21 05:38:11;;;;;;;8.38;5.88;;;;;;;16.30;71.74;100574.16;5034467;28;20053;-60
2021/08/21 05:40:39;;;;;;;7.30;5.85;;;;;;;16.50;71.14;100569.56;5033418;28;20049;-60
2021/08/21 05:43:07;;;;;;;5.90;5.07;;;;;;;16.68;70.37;100570.13;5034375;28;20053;-60
2021/08/21 05:45:34;;;;;;;7.88;3.90;;;;;;;16.81;69.73;100571.78;5034217;28;20080;-60
2021/08/21 05:48:04;;;;;;;5.75;4.35;;;;;;;16.95;68.83;100568.59;5033604;28;20053;-60
2021/08/21 05:50:31;;;;;;;4.75;3.88;;;;;;;17.08;68.74;100566.56;5034018;28;20060;-58
2021/08/21 05:52:58;;;;;;;6.20;3.78;;;;;;;17.22;68.31;100571.81;5033742;28;20057;-59
2021/08/21 05:55:28;;;;;;;5.75;4.05;;;;;;;17.37;68.19;100568.22;5033750;28;20053;-60
2021/08/21 05:57:55;;;;;;;6.05;4.18;;;;;;;17.47;67.68;100566.06;5033960;28;20065;-60
2021/08/21 06:00:24;;;;;;;4.43;3.97;;;;;;;17.56;67.43;100575.19;5032883;28;20383;-60
2021/08/21 06:02:52;;;;;;;5.45;3.30;;;;;;;17.59;67.08;100571.63;5033646;28;20053;-60
2021/08/21 06:05:21;;;;;;;5.18;3.58;;;;;;;17.69;66.90;100570.31;5033330;28;20057;-61
2021/08/21 06:07:48;;;;;;;10.05;4.10;;;;;;;17.81;66.21;100571.06;5033480;28;20058;-60
2021/08/21 06:10:16;;;;;;;5.00;4.30;;;;;;;17.90;66.25;100582.19;5032646;28;20057;-60
2021/08/21 06:12:43;;;;;;;4.88;4.05;;;;;;;17.98;66.21;100572.75;5033387;28;20148;-60
2021/08/21 06:15:11;;;;;;;6.75;4.20;;;;;;;18.07;66.38;100578.19;5033255;28;20406;-60
2021/08/21 06:17:39;;;;;;;6.93;4.70;;;;;;;18.20;65.94;100574.09;5033046;28;20057;-60
2021/08/21 06:20:07;;;;;;;4.75;4.22;;;;;;;18.33;65.57;100572.03;5033136;28;20054;-59
2021/08/21 06:22:36;;;;;;;7.38;4.35;;;;;;;18.48;65.36;100576.00;5033123;28;20061;-60
2021/08/21 06:25:03;;;;;;;6.97;4.72;;;;;;;18.55;65.17;100569.72;5032490;28;20418;-61
2021/08/21 06:27:31;;;;;;;7.05;5.07;;;;;;;18.66;65.21;100570.78;5032807;28;20057;-60
2021/08/21 06:29:58;;;;;;;8.18;5.30;;;;;;;18.77;64.61;100577.50;5033211;28;20052;-60
2021/08/21 06:32:25;;;;;;;5.45;4.90;;;;;;;18.82;64.97;100577.25;5032990;28;20056;-60
2021/08/21 06:34:53;;;;;;;5.30;4.80;;;;;;;18.95;64.35;100572.28;5033034;28;20398;-60
2021/08/21 06:37:20;;;;;;;6.40;4.90;;;;;;;19.05;64.20;100568.88;5033224;28;20053;-60
2021/08/21 06:39:49;;;;;;;6.20;4.80;;;;;;;19.18;63.72;100565.94;5033149;28;20065;-61
2021/08/21 06:42:16;;;;;;;6.35;4.70;;;;;;;19.28;63.46;100565.34;5032895;28;20525;-60
2021/08/21 06:44:44;;;;;;;5.28;4.78;;;;;;;19.47;63.31;100568.16;5032384;28;20482;-61
2021/08/21 06:47:11;;;;;;;5.70;5.20;;;;;;;19.59;62.88;100560.69;5032838;28;20073;-60
2021/08/21 06:49:38;;;;;;;6.72;5.00;;;;;;;19.79;62.32;100570.81;5032969;28;20061;-61
2021/08/21 06:52:06;;;;;;;5.78;5.18;;;;;;;19.96;61.89;100565.88;5032950;28;20052;-60
2021/08/21 06:54:33;;;;;;;5.78;5.13;;;;;;;20.13;61.47;100575.84;5032605;28;20506;-60
2021/08/21 06:57:03;;;;;;;7.13;6.07;;;;;;;20.31;61.40;100571.34;5032547;28;20054;-60
2021/08/21 06:59:30;;;;;;;;;;;;;;;20.35;61.41;100569.38;5033463;28;20080;-61
2021/08/21 07:01:57;;;;;;;6.78;5.60;;;;;;;20.59;60.73;100573.81;5032192;28;20358;-60
2021/08/21 07:04:24;;;;;;;6.43;5.80;;;;;;;20.80;60.47;100561.19;5032702;28;20402;-60
2021/08/21 07:06:52;;;;;;;5.88;5.28;;;;;;;21.04;60.05;100560.75;5032435;28;20049;-60
2021/08/21 07:09:19;;;;;;;7.13;5.95;;;;;;;21.25;59.62;100565.88;5032480;28;20053;-60
2021/08/21 07:11:47;;;;;;;7.40;5.55;;;;;;;21.46;58.94;100565.34;5033181;28;20057;-60
2021/08/21 07:14:15;;;;;;;6.25;5.65;;;;;;;21.72;58.24;100559.97;5036277;28;20053;-60
2021/08/21 07:16:43;;;;;;;6.95;6.25;;;;;;;21.82;58.15;100560.06;5018709;28;20112;-61
2021/08/21 07:19:10;;;;;;;6.70;5.95;;;;;;;22.04;57.38;100560.28;5017192;28;20054;-60
2021/08/21 07:21:38;;;;;;;5.90;5.28;;;;;;;22.26;56.69;100558.50;5016799;28;20050;-60
2021/08/21 07:24:05;;;;;;;6.60;5.60;;;;;;;22.48;56.59;100560.28;5031195;28;20053;-61
2021/08/21 07:26:33;;;;;;;6.32;5.70;;;;;;;22.74;55.63;100557.59;5036300;28;20449;-61
2021/08/21 07:29:01;;;;;;;6.57;5.85;;;;;;;23.07;55.13;100553.78;5036276;28;20053;-61
2021/08/21 07:31:30;;;;;;;6.15;5.40;;;;;;;23.25;54.09;100551.03;5036124;28;20060;-61
2021/08/21 07:33:58;;;;;;;7.75;5.40;;;;;;;23.45;54.15;100548.66;5036201;28;20061;-61
2021/08/21 07:36:26;;;;;;;6.53;5.57;;;;;;;23.70;53.29;100554.41;5035900;28;20049;-61
2021/08/21 07:38:53;;;;;;;6.70;5.75;;;;;;;23.75;52.88;100553.19;5036088;28;20053;-60
2021/08/21 07:41:21;;;;;;;7.75;5.88;;;;;;;24.14;52.22;100553.28;5036502;28;20049;-61
2021/08/21 07:43:49;;;;;;;6.78;6.05;;;;;;;24.60;50.76;100548.84;5036203;28;20397;-61
2021/08/21 07:46:16;;;;;;;7.43;6.53;;;;;;;24.66;50.83;100550.88;5036181;28;20053;-61
2021/08/21 07:48:45;;;;;;;6.05;5.15;;;;;;;24.74;50.05;100554.53;5035933;28;20065;-61
2021/08/21 07:51:12;;;;;;;5.55;4.95;;;;;;;25.01;49.55;100557.72;5036405;28;20104;-61
2021/08/21 07:53:40;;;;;;;8.80;6.70;;;;;;;25.33;48.89;100548.25;5035972;28;20068;-62
2021/08/21 07:56:07;;;;;;;8.18;5.72;;;;;;;26.00;48.30;100562.59;5035743;28;20065;-61
2021/08/21 07:58:34;;;;;;;6.15;5.55;;;;;;;26.72;45.72;100560.75;5035604;28;20426;-62
2021/08/21 08:01:02;;;;;;;7.95;5.57;;;;;;;27.18;44.64;100557.81;5035332;28;20066;-61
2021/08/21 08:03:30;;;;;;;5.72;5.22;;;;;;;27.57;44.12;100559.38;5036115;28;20057;-61
2021/08/21 08:05:59;;;;;;;6.38;5.25;;;;;;;27.89;43.41;100561.84;5035787;28;20485;-61
2021/08/21 08:08:26;;;;;;;5.63;5.13;;;;;;;28.19;43.16;100560.94;5035139;28;20505;-61
2021/08/21 08:10:54;;;;;;;7.07;4.90;;;;;;;28.46;42.42;100562.97;5035153;28;20072;-62
2021/08/21 08:13:24;;;;;;;6.10;5.47;;;;;;;28.49;42.12;100562.09;5035722;28;20060;-61
2021/08/21 08:15:52;;;;;;;6.53;5.35;;;;;;;28.84;41.35;100556.97;5035726;28;20437;-61
2021/08/21 08:18:19;;;;;;;5.35;4.80;;;;;;;29.07;41.19;100562.66;5035716;28;20076;-60
2021/08/21 08:20:47;;;;;;;6.72;5.38;;;;;;;29.25;40.83;100561.50;5035350;28;20512;-62
2021/08/21 08:23:16;;;;;;;6.32;5.70;;;;;;;29.27;41.62;100559.00;5033727;28;20050;-62
2021/08/21 08:25:43;;;;;;;5.57;5.00;;;;;;;29.52;41.15;100561.34;5035459;28;20402;-63
2021/08/21 08:28:11;;;;;;;6.63;5.78;;;;;;;30.06;40.11;100551.53;5035250;28;20064;-61
2021/08/21 08:30:39;;;;;;;5.63;5.13;;;;;;;30.56;38.87;100558.91;5035341;28;20057;-61
2021/08/21 08:33:06;;;;;;;5.53;4.93;;;;;;;31.15;38.22;100554.84;5035098;28;20056;-63
2021/08/21 08:35:33;;;;;;;5.50;4.65;;;;;;;31.34;37.08;100553.06;5035084;28;20053;-61
2021/08/21 08:38:01;;;;;;;6.03;5.03;;;;;;;31.31;37.73;100550.28;5035300;28;20061;-62
2021/08/21 08:40:30;;;;;;;6.88;5.30;;;;;;;32.11;36.25;100550.31;5034546;28;20053;-61
2021/08/21 08:42:59;;;;;;;;;;;;;;;32.61;35.29;100550.69;5035784;28;20053;-61
2021/08/21 08:45:26;;;;;;;6.50;4.90;;;;;;;33.59;33.74;100554.53;5035002;28;20472;-61
2021/08/21 08:47:54;;;;;;;5.53;5.00;;;;;;;34.83;31.31;100540.38;5035221;28;20053;-61
2021/08/21 08:50:22;;;;;;;5.57;5.07;;;;;;;36.41;28.86;100535.75;5034718;28;20053;-62
2021/08/21 08:52:51;;;;;;;6.72;6.13;;;;;;;37.63;26.90;100535.06;5035038;28;20049;-62
2021/08/21 08:55:18;;;;;;;7.13;6.15;;;;;;;38.68;25.41;100548.88;5034510;28;20076;-62
2021/08/21 08:57:47;;;;;;;9.25;6.82;;;;;;;38.53;24.79;100534.34;5035078;28;20057;-62
2021/08/21 09:00:19;;;;;;;6.70;6.00;;;;;;;40.30;23.25;100532.66;5034140;28;20080;-62
2021/08/21 09:02:48;;;;;;;7.07;6.38;;;;;;;41.30;21.22;100545.31;5034752;28;20060;-63
2021/08/21 09:05:18;;;;;;;7.47;6.18;;;;;;;42.02;20.25;100545.91;5034974;28;20054;-62
2021/08/21 09:07:48;;;;;;;8.40;5.75;;;;;;;42.63;19.83;100547.91;5034814;28;20053;-61
2021/08/21 09:10:19;;;;;;;6.40;5.47;;;;;;;41.95;20.45;100541.38;5033662;28;20049;-61
2021/08/21 09:12:49;;;;;;;8.23;7.30;;;;;;;41.85;19.64;100549.59;5034334;28;20045;-61
2021/08/21 09:15:22;;;;;;;6.60;5.95;;;;;;;40.86;20.46;100547.56;5033942;28;20056;-62
2021/08/21 09:18:05;;;;;;;7.05;6.35;;;;;;;40.10;22.30;100545.28;5034685;28;20054;-63
2021/08/21 09:20:34;;;;;;;6.93;6.20;;;;;;;40.12;22.36;100545.53;5034389;28;20065;-62
2021/08/21 09:23:21;;;;;;;7.28;6.47;;;;;;;39.76;21.84;100545.00;5034494;28;20045;-63
2021/08/21 09:25:50;;;;;;;7.07;5.78;;;;;;;38.95;22.93;100544.69;5034208;28;20060;-62
2021/08/21 09:28:21;;;;;;;5.68;5.10;;;;;;;39.05;22.19;100545.34;5034095;28;20042;-60
2021/08/21 09:30:49;;;;;;;6.88;5.47;;;;;;;39.84;21.51;100543.22;5033757;28;20049;-60
2021/08/21 09:33:18;;;;;;;5.00;4.60;;;;;;;39.75;20.75;100543.38;5033803;28;20050;-60
2021/08/21 09:35:46;;;;;;;5.40;4.55;;;;;;;39.46;20.77;100545.28;5033443;28;20065;-61
2021/08/21 09:38:16;;;;;;;3.72;3.22;;;;;;;38.97;20.49;100544.19;5034192;28;20058;-60
2021/08/21 09:40:43;;;;;;;6.10;4.75;;;;;;;38.39;21.60;100541.03;5033730;28;20069;-63
2021/08/21 09:43:22;;;;;;;6.00;5.40;;;;;;;38.72;22.26;100537.75;5033557;28;20049;-60
2021/08/21 09:46:10;;;;;;;5.07;4.15;;;;;;;39.13;20.84;100529.00;5014403;28;20058;-61
2021/08/21 09:48:55;;;;;;;3.78;3.30;;;;;;;39.23;21.67;100535.47;5025549;28;20060;-61
2021/08/21 09:51:43;;;;;;;4.97;3.17;;;;;;;39.84;20.22;100534.47;5034098;28;20414;-62
2021/08/21 09:54:11;;;;;;;;;;;;;;;41.03;19.75;100530.06;5033946;28;20056;-61
2021/08/21 09:56:40;;;;;;;4.80;2.70;;;;;;;40.90;19.04;100523.94;5033049;28;20366;-61
2021/08/21 09:59:09;;;;;;;3.40;3.10;;;;;;;41.58;18.76;100519.03;5033418;28;20057;-61
2021/08/21 10:01:37;;;;;;;3.70;2.53;;;;;;;42.81;17.21;100522.25;5033141;28;20079;-61
2021/08/21 10:04:05;;;;;;;3.80;2.50;;;;;;;43.01;17.38;100507.25;5033348;28;20049;-61
2021/08/21 10:06:33;;;;;;;2.92;2.17;;;;;;;42.74;17.15;100515.63;5034253;28;20436;-62
2021/08/21 10:09:04;;;;;;;3.53;2.65;;;;;;;43.66;17.15;100511.59;5033190;28;20046;-61
2021/08/21 10:11:32;;;;;;;3.50;2.20;;;;;;;43.56;16.85;100511.13;5033152;28;20057;-61
2021/08/21 10:14:00;;;;;;;3.75;2.22;;;;;;;42.89;17.37;100505.72;5033440;28;20406;-61
2021/08/21 10:16:30;;;;;;;2.50;2.10;;;;;;;42.36;18.29;100512.28;5033296;28;20053;-62
2021/08/21 10:18:59;;;;;;;4.00;2.63;;;;;;;40.98;19.58;100505.38;5033052;28;20080;-61
2021/08/21 10:21:27;;;;;;;3.58;2.88;;;;;;;40.11;20.09;100503.09;5013144;28;20049;-61
2021/08/21 10:23:55;;;;;;;4.70;2.55;;;;;;;39.13;21.34;100504.91;5030545;28;20072;-61
2021/08/21 10:26:28;;;;;;;3.17;2.55;;;;;;;38.66;21.43;100507.00;5050854;28;20052;-61
2021/08/21 10:28:58;;;;;;;2.75;2.40;;;;;;;37.87;22.95;100518.28;5042435;28;20061;-61
2021/08/21 10:31:46;;;;;;;3.25;2.28;;;;;;;37.32;23.63;100505.19;5031614;28;20057;-62
2021/08/21 10:34:14;;;;;;;;;;;;;;;36.69;24.14;100508.19;5022802;28;20050;-61
2021/08/21 10:36:59;;;;;;;4.57;2.60;;;;;;;36.03;26.18;100508.25;5034715;28;20269;-62
2021/08/21 10:39:35;;;;;;;3.22;2.30;;;;;;;35.56;26.38;100505.53;5041310;28;20052;-62
2021/08/21 10:42:21;;;;;;;2.58;2.00;;;;;;;35.26;27.11;100512.34;5021385;28;20387;-62
2021/08/21 10:44:50;;;;;;;3.00;2.60;;;;;;;34.55;27.67;100517.97;5026733;28;20061;-61
2021/08/21 10:47:38;;;;;;;;;;;;;;;34.45;27.96;100510.56;5021636;28;20050;-62
2021/08/21 10:50:31;;;;;;;3.55;2.90;;;;;;;34.03;28.25;100508.19;5020933;28;19929;-62
2021/08/21 10:53:00;;;;;;;3.20;2.70;;;;;;;34.02;28.02;100508.66;5027029;28;20548;-62
2021/08/21 10:55:28;;;;;;;;;;;;;;;34.02;28.12;100517.34;5030809;28;20097;-63
2021/08/21 10:57:57;;;;;;;;;;;;;;;33.73;28.85;100506.97;5027250;28;20389;-62
2021/08/21 11:01:02;;;;;;;3.78;2.92;;;;;;;33.72;29.50;100500.38;5023311;28;19921;-61
2021/08/21 11:03:45;;;;;;;3.70;2.80;;;;;;;34.07;28.32;100508.06;4985878;28;20053;-61
2021/08/21 11:06:15;;;;;;;4.93;3.13;;;;;;;34.82;28.26;100504.00;5031863;28;20061;-61
2021/08/21 11:09:04;;;;;;;3.63;3.33;;;;;;;37.22;25.58;100497.06;5024207;28;20056;-62
2021/08/21 11:11:42;;;;;;;3.08;2.78;;;;;;;38.90;22.86;100495.09;5012869;28;20054;-62
2021/08/21 11:14:28;;;;;;;3.50;2.72;;;;;;;38.88;22.78;100498.53;5012564;28;20050;-62
2021/08/21 11:16:57;;;;;;;3.67;2.85;;;;;;;38.56;22.80;100491.81;5012784;28;20061;-62
2021/08/21 11:19:35;;;;;;;3.30;3.00;;;;;;;39.25;22.20;100482.50;5020509;28;20054;-62
2021/08/21 11:22:29;;;;;;;3.25;2.95;;;;;;;39.18;21.50;100484.53;5029866;28;20056;-62
2021/08/21 11:25:12;;;;;;;3.03;2.45;;;;;;;40.06;21.00;100478.41;5020521;28;20045;-62
2021/08/21 11:27:43;;;;;;;3.13;2.42;;;;;;;40.28;20.80;100485.66;5017004;28;20363;-62
2021/08/21 11:30:21;;;;;;;3.88;2.70;;;;;;;39.56;21.60;100485.47;5027712;28;20049;-62
2021/08/21 11:33:04;;;;;;;3.00;2.70;;;;;;;40.08;21.42;100480.78;5012784;28;20050;-62
2021/08/21 11:35:36;;;;;;;3.20;2.30;;;;;;;39.50;21.59;100487.53;5022711;28;20057;-62
2021/08/21 11:38:07;;;;;;;3.83;1.98;;;;;;;38.69;22.90;100492.22;5026160;28;20050;-62